createdAt,value
2016-08-21T00:00:29.749Z,0
2016-08-21T00:01:42.735Z,0
2016-08-21T00:02:55.920Z,0
2016-08-21T00:04:08.897Z,0
2016-08-21T00:05:21.882Z,0
2016-08-21T00:06:34.860Z,0
2016-08-21T00:07:47.843Z,0
2016-08-21T00:09:00.832Z,0
2016-08-21T00:10:13.817Z,0
2016-08-21T00:11:26.809Z,0
2016-08-21T00:12:39.792Z,0
2016-08-21T00:13:52.779Z,0
2016-08-21T00:15:05.958Z,0
2016-08-21T00:16:18.936Z,0
2016-08-21T00:17:31.912Z,0
2016-08-21T00:18:44.899Z,0
2016-08-21T00:19:57.875Z,0
2016-08-21T00:21:10.872Z,0
2016-08-21T00:22:23.854Z,0
2016-08-21T00:23:36.837Z,0
2016-08-21T00:24:49.844Z,0
2016-08-21T00:26:02.832Z,0
2016-08-21T00:27:15.810Z,0
2016-08-21T00:28:28.785Z,0
2016-08-21T00:29:41.764Z,0
2016-08-21T00:30:54.946Z,0
2016-08-21T00:32:08.150Z,0
2016-08-21T00:33:21.187Z,0
2016-08-21T00:34:34.364Z,0
2016-08-21T00:35:47.345Z,0
2016-08-21T00:37:00.318Z,0
2016-08-21T00:38:13.328Z,0
2016-08-21T00:39:26.303Z,0
2016-08-21T00:40:39.290Z,0
2016-08-21T00:41:52.468Z,0
2016-08-21T00:43:05.452Z,0
2016-08-21T00:44:18.439Z,0
2016-08-21T00:45:31.426Z,0
2016-08-21T00:46:44.424Z,0
2016-08-21T00:47:57.411Z,0
2016-08-21T00:49:10.414Z,0
2016-08-21T00:50:23.602Z,0
2016-08-21T00:51:36.577Z,0
2016-08-21T00:52:49.775Z,0
2016-08-21T00:54:02.779Z,0
2016-08-21T00:55:15.754Z,0
2016-08-21T00:56:28.736Z,0
2016-08-21T00:57:41.736Z,0
2016-08-21T00:58:54.722Z,0
2016-08-21T01:00:07.699Z,0
2016-08-21T01:01:20.673Z,0
2016-08-21T01:02:33.651Z,0
2016-08-21T01:03:46.627Z,0
2016-08-21T01:04:59.602Z,0
2016-08-21T01:06:12.585Z,0
2016-08-21T01:07:25.567Z,0
2016-08-21T01:08:38.543Z,0
2016-08-21T01:09:51.731Z,0
2016-08-21T01:11:04.710Z,0
2016-08-21T01:12:17.701Z,0
2016-08-21T01:13:30.680Z,0
2016-08-21T01:14:43.664Z,0
2016-08-21T01:15:56.654Z,0
2016-08-21T01:17:09.648Z,0
2016-08-21T01:18:22.630Z,0
2016-08-21T01:19:35.616Z,0
2016-08-21T01:20:48.595Z,0
2016-08-21T01:22:01.580Z,0
2016-08-21T01:23:14.580Z,0
2016-08-21T01:24:27.763Z,0
2016-08-21T01:25:40.945Z,0
2016-08-21T01:26:53.929Z,0
2016-08-21T01:28:06.907Z,0
2016-08-21T01:29:20.097Z,0
2016-08-21T01:30:33.089Z,0
2016-08-21T01:31:46.064Z,0
2016-08-21T01:32:59.045Z,0
2016-08-21T01:34:12.087Z,0
2016-08-21T01:35:25.069Z,0
2016-08-21T01:36:38.043Z,0
2016-08-21T01:37:51.019Z,0
2016-08-21T01:39:03.998Z,0
2016-08-21T01:40:16.985Z,0
2016-08-21T01:41:29.969Z,0
2016-08-21T01:42:42.950Z,0
2016-08-21T01:43:56.138Z,0
2016-08-21T01:45:09.122Z,0
2016-08-21T01:46:22.303Z,0
2016-08-21T01:47:35.499Z,0
2016-08-21T01:48:48.474Z,0
2016-08-21T01:50:01.662Z,0
2016-08-21T01:51:14.879Z,0
2016-08-21T01:52:27.858Z,0
2016-08-21T01:53:41.041Z,0
2016-08-21T01:54:54.018Z,0
2016-08-21T01:56:06.997Z,0
2016-08-21T01:57:19.977Z,0
2016-08-21T01:58:32.967Z,0
2016-08-21T01:59:45.943Z,0
2016-08-21T02:00:58.918Z,0
2016-08-21T02:02:11.908Z,0
2016-08-21T02:03:24.893Z,0
2016-08-21T02:04:37.870Z,0
2016-08-21T02:05:50.843Z,0
2016-08-21T02:07:04.049Z,0
2016-08-21T02:08:17.018Z,0
2016-08-21T02:09:29.987Z,0
2016-08-21T02:10:42.972Z,0
2016-08-21T02:11:56.150Z,0
2016-08-21T02:13:09.322Z,0
2016-08-21T02:14:22.294Z,0
2016-08-21T02:15:35.273Z,0
2016-08-21T02:16:48.452Z,0
2016-08-21T02:18:01.446Z,0
2016-08-21T02:19:14.427Z,0
2016-08-21T02:20:27.405Z,0
2016-08-21T02:21:40.386Z,0
2016-08-21T02:22:53.578Z,0
2016-08-21T02:24:06.549Z,0
2016-08-21T02:25:19.535Z,0
2016-08-21T02:26:32.712Z,0
2016-08-21T02:27:45.908Z,0
2016-08-21T02:28:59.092Z,0
2016-08-21T02:30:12.086Z,0
2016-08-21T02:31:25.264Z,0
2016-08-21T02:32:38.260Z,0
2016-08-21T02:33:51.246Z,0
2016-08-21T02:35:04.282Z,0
2016-08-21T02:36:17.263Z,0
2016-08-21T02:37:30.230Z,0
2016-08-21T02:38:43.212Z,0
2016-08-21T02:39:56.175Z,0
2016-08-21T02:41:09.164Z,0
2016-08-21T02:42:22.138Z,0
2016-08-21T02:43:35.119Z,0
2016-08-21T02:44:48.096Z,0
2016-08-21T02:46:01.077Z,0
2016-08-21T02:47:14.058Z,0
2016-08-21T02:48:27.044Z,0
2016-08-21T02:49:40.026Z,0
2016-08-21T02:50:53.005Z,0
2016-08-21T02:52:05.974Z,0
2016-08-21T02:53:18.958Z,0
2016-08-21T02:54:31.943Z,0
2016-08-21T02:55:44.920Z,0
2016-08-21T02:56:57.891Z,0
2016-08-21T02:58:10.902Z,0
2016-08-21T02:59:23.879Z,0
2016-08-21T03:00:36.861Z,0
2016-08-21T03:01:49.849Z,0
2016-08-21T03:03:02.834Z,0
2016-08-21T03:04:15.807Z,0
2016-08-21T03:05:28.783Z,0
2016-08-21T03:06:41.760Z,0
2016-08-21T03:07:54.744Z,0
2016-08-21T03:09:08.137Z,0
2016-08-21T03:10:21.114Z,0
2016-08-21T03:11:34.101Z,0
2016-08-21T03:12:47.093Z,0
2016-08-21T03:14:00.080Z,0
2016-08-21T03:15:13.258Z,0
2016-08-21T03:16:26.237Z,0
2016-08-21T03:17:39.219Z,0
2016-08-21T03:18:52.198Z,0
2016-08-21T03:20:05.190Z,0
2016-08-21T03:21:18.171Z,0
2016-08-21T03:22:31.158Z,0
2016-08-21T03:23:44.160Z,0
2016-08-21T03:24:57.135Z,0
2016-08-21T03:26:10.110Z,0
2016-08-21T03:27:23.093Z,0
2016-08-21T03:28:36.075Z,0
2016-08-21T03:29:49.059Z,0
2016-08-21T03:31:02.039Z,0
2016-08-21T03:32:15.041Z,0
2016-08-21T03:33:28.239Z,0
2016-08-21T03:34:41.220Z,0
2016-08-21T03:35:54.241Z,0
2016-08-21T03:37:07.415Z,0
2016-08-21T03:38:20.399Z,0
2016-08-21T03:39:33.573Z,0
2016-08-21T03:40:46.553Z,0
2016-08-21T03:41:59.536Z,0
2016-08-21T03:43:12.530Z,0
2016-08-21T03:44:25.519Z,0
2016-08-21T03:45:38.494Z,0
2016-08-21T03:46:51.475Z,0
2016-08-21T03:48:04.476Z,0
2016-08-21T03:49:17.459Z,0
2016-08-21T03:50:30.439Z,0
2016-08-21T03:51:43.431Z,4
2016-08-21T03:52:56.810Z,4
2016-08-21T03:54:09.793Z,4
2016-08-21T03:55:22.975Z,4
2016-08-21T03:56:35.957Z,8
2016-08-21T03:57:48.929Z,8
2016-08-21T03:59:01.910Z,8
2016-08-21T04:00:14.894Z,8
2016-08-21T04:01:28.081Z,8
2016-08-21T04:02:41.070Z,12
2016-08-21T04:03:54.248Z,16
2016-08-21T04:05:07.229Z,20
2016-08-21T04:06:20.232Z,24
2016-08-21T04:07:33.210Z,28
2016-08-21T04:08:46.384Z,36
2016-08-21T04:09:59.564Z,44
2016-08-21T04:11:12.543Z,48
2016-08-21T04:12:25.520Z,56
2016-08-21T04:13:38.492Z,68
2016-08-21T04:14:51.470Z,80
2016-08-21T04:16:04.651Z,92
2016-08-21T04:17:17.626Z,108
2016-08-21T04:18:30.607Z,120
2016-08-21T04:19:43.579Z,140
2016-08-21T04:20:56.550Z,160
2016-08-21T04:22:09.554Z,180
2016-08-21T04:23:22.541Z,200
2016-08-21T04:24:35.513Z,224
2016-08-21T04:25:48.489Z,256
2016-08-21T04:27:01.667Z,288
2016-08-21T04:28:14.639Z,316
2016-08-21T04:29:27.620Z,344
2016-08-21T04:30:40.593Z,376
2016-08-21T04:31:53.588Z,416
2016-08-21T04:33:06.575Z,456
2016-08-21T04:34:19.551Z,492
2016-08-21T04:35:32.546Z,532
2016-08-21T04:36:45.596Z,576
2016-08-21T04:37:58.563Z,608
2016-08-21T04:39:11.556Z,636
2016-08-21T04:40:24.534Z,660
2016-08-21T04:41:37.512Z,700
2016-08-21T04:42:50.505Z,744
2016-08-21T04:44:03.495Z,800
2016-08-21T04:45:16.673Z,856
2016-08-21T04:46:29.649Z,912
2016-08-21T04:47:42.833Z,956
2016-08-21T04:48:55.818Z,1004
2016-08-21T04:50:08.817Z,1032
2016-08-21T04:51:21.815Z,1044
2016-08-21T04:52:34.993Z,1072
2016-08-21T04:53:47.971Z,1104
2016-08-21T04:55:00.951Z,1124
2016-08-21T04:56:13.928Z,1152
2016-08-21T04:57:26.909Z,1188
2016-08-21T04:58:40.091Z,1220
2016-08-21T04:59:53.077Z,1276
2016-08-21T05:01:06.057Z,1332
2016-08-21T05:02:19.033Z,1404
2016-08-21T05:03:32.016Z,1468
2016-08-21T05:04:44.998Z,1568
2016-08-21T05:05:57.984Z,1636
2016-08-21T05:07:11.162Z,1704
2016-08-21T05:08:24.149Z,1828
2016-08-21T05:09:37.144Z,1824
2016-08-21T05:10:50.132Z,1828
2016-08-21T05:12:03.114Z,1872
2016-08-21T05:13:16.094Z,1900
2016-08-21T05:14:29.269Z,1960
2016-08-21T05:15:42.245Z,2036
2016-08-21T05:16:55.224Z,2128
2016-08-21T05:18:08.208Z,2348
2016-08-21T05:19:21.194Z,2448
2016-08-21T05:20:34.382Z,2640
2016-08-21T05:21:47.369Z,2852
2016-08-21T05:23:00.350Z,3096
2016-08-21T05:24:13.326Z,3360
2016-08-21T05:25:26.504Z,3560
2016-08-21T05:26:39.482Z,3820
2016-08-21T05:27:52.461Z,4188
2016-08-21T05:29:05.439Z,4696
2016-08-21T05:30:18.418Z,5316
2016-08-21T05:31:31.402Z,5756
2016-08-21T05:32:44.382Z,5884
2016-08-21T05:33:57.366Z,6036
2016-08-21T05:35:10.344Z,6132
2016-08-21T05:36:23.329Z,6144
2016-08-21T05:37:36.575Z,5988
2016-08-21T05:38:49.569Z,5908
2016-08-21T05:40:02.560Z,5856
2016-08-21T05:41:15.537Z,5900
2016-08-21T05:42:28.520Z,6136
2016-08-21T05:43:41.696Z,6340
2016-08-21T05:44:54.680Z,6456
2016-08-21T05:46:07.660Z,6440
2016-08-21T05:47:20.642Z,6472
2016-08-21T05:48:33.627Z,6528
2016-08-21T05:49:46.622Z,6560
2016-08-21T05:50:59.607Z,6760
2016-08-21T05:52:12.595Z,6916
2016-08-21T05:53:25.592Z,6816
2016-08-21T05:54:38.576Z,6660
2016-08-21T05:55:51.569Z,6656
2016-08-21T05:57:04.553Z,7056
2016-08-21T05:58:17.530Z,7280
2016-08-21T05:59:30.509Z,7184
2016-08-21T06:00:43.694Z,7288
2016-08-21T06:01:56.675Z,7616
2016-08-21T06:03:09.905Z,7808
2016-08-21T06:04:22.910Z,8008
2016-08-21T06:05:35.888Z,8100
2016-08-21T06:06:48.872Z,7956
2016-08-21T06:08:01.854Z,7684
2016-08-21T06:09:14.832Z,7664
2016-08-21T06:10:27.806Z,7808
2016-08-21T06:11:40.789Z,8220
2016-08-21T06:12:53.776Z,8912
2016-08-21T06:14:06.961Z,9644
2016-08-21T06:15:19.948Z,10164
2016-08-21T06:16:33.127Z,10884
2016-08-21T06:17:46.113Z,11392
2016-08-21T06:18:59.097Z,12044
2016-08-21T06:20:12.089Z,12920
2016-08-21T06:21:25.065Z,13304
2016-08-21T06:22:38.250Z,12896
2016-08-21T06:23:51.237Z,13044
2016-08-21T06:25:04.223Z,12500
2016-08-21T06:26:17.200Z,12404
2016-08-21T06:27:30.202Z,12152
2016-08-21T06:28:43.387Z,12316
2016-08-21T06:29:56.376Z,13476
2016-08-21T06:31:09.564Z,10464
2016-08-21T06:32:22.549Z,10276
2016-08-21T06:33:35.514Z,9816
2016-08-21T06:34:48.498Z,10132
2016-08-21T06:36:01.474Z,10688
2016-08-21T06:37:14.456Z,11276
2016-08-21T06:38:27.483Z,11800
2016-08-21T06:39:40.469Z,12332
2016-08-21T06:40:53.463Z,12804
2016-08-21T06:42:06.863Z,14168
2016-08-21T06:43:19.868Z,16320
2016-08-21T06:44:32.854Z,19072
2016-08-21T06:45:45.837Z,26400
2016-08-21T06:46:58.827Z,29504
2016-08-21T06:48:12.219Z,24576
2016-08-21T06:49:25.204Z,21568
2016-08-21T06:50:38.413Z,22240
2016-08-21T06:51:51.397Z,20064
2016-08-21T06:53:04.382Z,20640
2016-08-21T06:54:17.366Z,20224
2016-08-21T06:55:30.365Z,18400
2016-08-21T06:56:43.351Z,18240
2016-08-21T06:57:56.345Z,21024
2016-08-21T06:59:09.335Z,27680
2016-08-21T07:00:22.522Z,27808
2016-08-21T07:01:35.503Z,59616
2016-08-21T07:02:48.487Z,33472
2016-08-21T07:04:01.487Z,37536
2016-08-21T07:05:14.482Z,50528
2016-08-21T07:06:27.475Z,40736
2016-08-21T07:07:40.467Z,45984
2016-08-21T07:08:53.454Z,41312
2016-08-21T07:10:06.437Z,68064
2016-08-21T07:11:19.421Z,77728
2016-08-21T07:12:32.406Z,54720
2016-08-21T07:13:45.392Z,63648
2016-08-21T07:14:58.400Z,64832
2016-08-21T07:16:11.396Z,45120
2016-08-21T07:17:24.386Z,38432
2016-08-21T07:18:37.393Z,49888
2016-08-21T07:19:50.588Z,31520
2016-08-21T07:21:03.576Z,63552
2016-08-21T07:22:16.563Z,70816
2016-08-21T07:23:29.549Z,88480
2016-08-21T07:24:42.549Z,89984
2016-08-21T07:25:55.537Z,89120
2016-08-21T07:27:08.542Z,84832
2016-08-21T07:28:21.729Z,66272
2016-08-21T07:29:34.720Z,20928
2016-08-21T07:30:47.728Z,35552
2016-08-21T07:32:00.728Z,21440
2016-08-21T07:33:14.126Z,26016
2016-08-21T07:34:27.120Z,19968
2016-08-21T07:35:40.113Z,35712
2016-08-21T07:36:53.117Z,35616
2016-08-21T07:38:06.308Z,50976
2016-08-21T07:39:19.341Z,65824
2016-08-21T07:40:32.327Z,42400
2016-08-21T07:41:45.538Z,59744
2016-08-21T07:42:58.531Z,55008
2016-08-21T07:44:11.527Z,19904
2016-08-21T07:45:24.524Z,14516
2016-08-21T07:46:37.516Z,17856
2016-08-21T07:47:50.507Z,11180
2016-08-21T07:49:03.700Z,12488
2016-08-21T07:50:16.693Z,10856
2016-08-21T07:51:29.686Z,13560
2016-08-21T07:52:42.686Z,67200
2016-08-21T07:53:55.673Z,12752
2016-08-21T07:55:08.667Z,32960
2016-08-21T07:56:21.661Z,14360
2016-08-21T07:57:34.663Z,9384
2016-08-21T07:58:47.657Z,8704
2016-08-21T08:00:00.645Z,5616
2016-08-21T08:01:13.641Z,4260
2016-08-21T08:02:26.834Z,4120
2016-08-21T08:03:39.842Z,5120
2016-08-21T08:04:52.819Z,8892
2016-08-21T08:06:05.803Z,9608
2016-08-21T08:07:18.794Z,9056
2016-08-21T08:08:31.988Z,10484
2016-08-21T08:09:44.988Z,8992
2016-08-21T08:10:58.186Z,7384
2016-08-21T08:12:11.170Z,8408
2016-08-21T08:13:24.158Z,11808
2016-08-21T08:14:37.146Z,12328
2016-08-21T08:15:50.133Z,11444
2016-08-21T08:17:03.125Z,11244
2016-08-21T08:18:16.111Z,8224
2016-08-21T08:19:29.108Z,6944
2016-08-21T08:20:42.289Z,6532
2016-08-21T08:21:55.485Z,6024
2016-08-21T08:23:08.670Z,5956
2016-08-21T08:24:21.668Z,6076
2016-08-21T08:25:34.653Z,6640
2016-08-21T08:26:47.854Z,7516
2016-08-21T08:28:00.851Z,8160
2016-08-21T08:29:13.844Z,8748
2016-08-21T08:30:26.828Z,8792
2016-08-21T08:31:40.016Z,9504
2016-08-21T08:32:53.006Z,10964
2016-08-21T08:34:06.006Z,11940
2016-08-21T08:35:18.993Z,13252
2016-08-21T08:36:31.981Z,14604
2016-08-21T08:37:44.965Z,15640
2016-08-21T08:38:57.947Z,18208
2016-08-21T08:40:11.196Z,19008
2016-08-21T08:41:24.397Z,22880
2016-08-21T08:42:37.394Z,30912
2016-08-21T08:43:50.383Z,63648
2016-08-21T08:45:03.368Z,84896
2016-08-21T08:46:16.357Z,34112
2016-08-21T08:47:29.341Z,52256
2016-08-21T08:48:42.329Z,28000
2016-08-21T08:49:55.327Z,55456
2016-08-21T08:51:08.319Z,33088
2016-08-21T08:52:21.315Z,68704
2016-08-21T08:53:34.514Z,47392
2016-08-21T08:54:47.498Z,23680
2016-08-21T08:56:00.503Z,38624
2016-08-21T08:57:13.484Z,28160
2016-08-21T08:58:26.471Z,24416
2016-08-21T08:59:39.456Z,24224
2016-08-21T09:00:52.455Z,39904
2016-08-21T09:02:05.454Z,25760
2016-08-21T09:03:18.440Z,14708
2016-08-21T09:04:31.436Z,8792
2016-08-21T09:05:44.423Z,8720
2016-08-21T09:06:57.608Z,7844
2016-08-21T09:08:10.794Z,6376
2016-08-21T09:09:23.776Z,6112
2016-08-21T09:10:36.975Z,5148
2016-08-21T09:11:50.178Z,4748
2016-08-21T09:13:03.167Z,4024
2016-08-21T09:14:16.170Z,3396
2016-08-21T09:15:29.168Z,4216
2016-08-21T09:16:42.158Z,4504
2016-08-21T09:17:55.148Z,2968
2016-08-21T09:19:08.135Z,2080
2016-08-21T09:20:21.142Z,2108
2016-08-21T09:21:34.128Z,2748
2016-08-21T09:22:47.332Z,3568
2016-08-21T09:24:00.318Z,4380
2016-08-21T09:25:13.308Z,4752
2016-08-21T09:26:26.502Z,4948
2016-08-21T09:27:39.490Z,5840
2016-08-21T09:28:52.470Z,7720
2016-08-21T09:30:05.460Z,11220
2016-08-21T09:31:18.441Z,16672
2016-08-21T09:32:31.438Z,15416
2016-08-21T09:33:44.421Z,16288
2016-08-21T09:34:57.809Z,13992
2016-08-21T09:36:11.019Z,10480
2016-08-21T09:37:24.003Z,9644
2016-08-21T09:38:37.009Z,7208
2016-08-21T09:39:50.001Z,7556
2016-08-21T09:41:03.045Z,7804
2016-08-21T09:42:16.228Z,7956
2016-08-21T09:43:29.210Z,8304
2016-08-21T09:44:42.190Z,6876
2016-08-21T09:45:55.183Z,8836
2016-08-21T09:47:08.173Z,9224
2016-08-21T09:48:21.366Z,8072
2016-08-21T09:49:34.354Z,8004
2016-08-21T09:50:47.347Z,7828
2016-08-21T09:52:00.330Z,8528
2016-08-21T09:53:13.831Z,8568
2016-08-21T09:54:26.837Z,8228
2016-08-21T09:55:39.817Z,8100
2016-08-21T09:56:52.809Z,8152
2016-08-21T09:58:05.789Z,8088
2016-08-21T09:59:18.771Z,8004
2016-08-21T10:00:31.768Z,8220
2016-08-21T10:01:44.954Z,8088
2016-08-21T10:02:57.959Z,8468
2016-08-21T10:04:10.949Z,8376
2016-08-21T10:05:23.952Z,7712
2016-08-21T10:06:36.939Z,7340
2016-08-21T10:07:49.936Z,7304
2016-08-21T10:09:02.917Z,6812
2016-08-21T10:10:15.898Z,6520
2016-08-21T10:11:28.886Z,6540
2016-08-21T10:12:41.877Z,6724
2016-08-21T10:13:54.876Z,9556
2016-08-21T10:15:07.865Z,16640
2016-08-21T10:16:20.859Z,26944
2016-08-21T10:17:33.835Z,100128
2016-08-21T10:18:47.023Z,69504
2016-08-21T10:20:00.022Z,26432
2016-08-21T10:21:13.014Z,52192
2016-08-21T10:22:26.199Z,26592
2016-08-21T10:23:39.191Z,25312
2016-08-21T10:24:52.394Z,36768
2016-08-21T10:26:05.585Z,55840
2016-08-21T10:27:18.559Z,18080
2016-08-21T10:28:31.558Z,16448
2016-08-21T10:29:44.952Z,12884
2016-08-21T10:30:57.942Z,11388
2016-08-21T10:32:10.932Z,11164
2016-08-21T10:33:23.925Z,12680
2016-08-21T10:34:36.923Z,25280
2016-08-21T10:35:49.914Z,96416
2016-08-21T10:37:02.910Z,25504
2016-08-21T10:38:15.909Z,23712
2016-08-21T10:39:28.901Z,14384
2016-08-21T10:40:41.905Z,14292
2016-08-21T10:41:54.961Z,14128
2016-08-21T10:43:07.956Z,14420
2016-08-21T10:44:20.947Z,12388
2016-08-21T10:45:34.137Z,10596
2016-08-21T10:46:47.131Z,11412
2016-08-21T10:48:00.321Z,11232
2016-08-21T10:49:13.311Z,10532
2016-08-21T10:50:26.302Z,9640
2016-08-21T10:51:39.284Z,10144
2016-08-21T10:52:52.271Z,11388
2016-08-21T10:54:05.267Z,13504
2016-08-21T10:55:18.255Z,15680
2016-08-21T10:56:31.241Z,17088
2016-08-21T10:57:44.236Z,15744
2016-08-21T10:58:57.217Z,48736
2016-08-21T11:00:10.217Z,22656
2016-08-21T11:01:23.199Z,19616
2016-08-21T11:02:36.208Z,16288
2016-08-21T11:03:49.202Z,15872
2016-08-21T11:05:02.184Z,17184
2016-08-21T11:06:15.173Z,15936
2016-08-21T11:07:28.155Z,13164
2016-08-21T11:08:41.144Z,10252
2016-08-21T11:09:54.334Z,7176
2016-08-21T11:11:07.326Z,6072
2016-08-21T11:12:20.517Z,6376
2016-08-21T11:13:33.511Z,7628
2016-08-21T11:14:46.709Z,8748
2016-08-21T11:15:59.698Z,8192
2016-08-21T11:17:12.706Z,10348
2016-08-21T11:18:25.900Z,8156
2016-08-21T11:19:38.888Z,6576
2016-08-21T11:20:51.870Z,6024
2016-08-21T11:22:05.075Z,7236
2016-08-21T11:23:18.061Z,9304
2016-08-21T11:24:31.450Z,10320
2016-08-21T11:25:44.431Z,9796
2016-08-21T11:26:57.406Z,7668
2016-08-21T11:28:10.597Z,7044
2016-08-21T11:29:23.579Z,7292
2016-08-21T11:30:36.566Z,6976
2016-08-21T11:31:49.551Z,6704
2016-08-21T11:33:02.532Z,6944
2016-08-21T11:34:15.510Z,6632
2016-08-21T11:35:28.697Z,5480
2016-08-21T11:36:41.674Z,4436
2016-08-21T11:37:54.667Z,5492
2016-08-21T11:39:07.851Z,5460
2016-08-21T11:40:20.834Z,5260
2016-08-21T11:41:33.817Z,5860
2016-08-21T11:42:46.855Z,7204
2016-08-21T11:43:59.858Z,7592
2016-08-21T11:45:12.843Z,7000
2016-08-21T11:46:25.821Z,8336
2016-08-21T11:47:38.817Z,7668
2016-08-21T11:48:52.005Z,8012
2016-08-21T11:50:05.018Z,7996
2016-08-21T11:51:18.008Z,9548
2016-08-21T11:52:30.998Z,10352
2016-08-21T11:53:43.982Z,11928
2016-08-21T11:54:56.970Z,12172
2016-08-21T11:56:09.953Z,11492
2016-08-21T11:57:22.939Z,10148
2016-08-21T11:58:35.922Z,9576
2016-08-21T11:59:49.105Z,10240
2016-08-21T12:01:02.284Z,11272
2016-08-21T12:02:15.478Z,12532
2016-08-21T12:03:28.478Z,9784
2016-08-21T12:04:41.668Z,8136
2016-08-21T12:05:54.663Z,7896
2016-08-21T12:07:08.053Z,7536
2016-08-21T12:08:21.032Z,5760
2016-08-21T12:09:34.017Z,7512
2016-08-21T12:10:47.019Z,9596
2016-08-21T12:12:00.005Z,10252
2016-08-21T12:13:13.000Z,13696
2016-08-21T12:14:25.992Z,15488
2016-08-21T12:15:38.983Z,14460
2016-08-21T12:16:51.977Z,17984
2016-08-21T12:18:04.965Z,21216
2016-08-21T12:19:18.158Z,19232
2016-08-21T12:20:31.349Z,17024
2016-08-21T12:21:44.348Z,17696
2016-08-21T12:22:57.383Z,18976
2016-08-21T12:24:10.575Z,19008
2016-08-21T12:25:23.587Z,20928
2016-08-21T12:26:36.775Z,21376
2016-08-21T12:27:49.766Z,22752
2016-08-21T12:29:02.950Z,22624
2016-08-21T12:30:16.132Z,21664
2016-08-21T12:31:29.117Z,21952
2016-08-21T12:32:42.107Z,18016
2016-08-21T12:33:55.110Z,21632
2016-08-21T12:35:08.300Z,18112
2016-08-21T12:36:21.285Z,17664
2016-08-21T12:37:34.279Z,14872
2016-08-21T12:38:47.464Z,17792
2016-08-21T12:40:00.649Z,14484
2016-08-21T12:41:13.647Z,13552
2016-08-21T12:42:26.632Z,16128
2016-08-21T12:43:39.665Z,19168
2016-08-21T12:44:52.661Z,15244
2016-08-21T12:46:05.651Z,13392
2016-08-21T12:47:18.640Z,12672
2016-08-21T12:48:31.631Z,12128
2016-08-21T12:49:44.623Z,12280
2016-08-21T12:50:57.609Z,13000
2016-08-21T12:52:10.607Z,13404
2016-08-21T12:53:23.598Z,11692
2016-08-21T12:54:36.586Z,9708
2016-08-21T12:55:49.969Z,11260
2016-08-21T12:57:02.964Z,14272
2016-08-21T12:58:15.950Z,13516
2016-08-21T12:59:29.131Z,12412
2016-08-21T13:00:42.315Z,12380
2016-08-21T13:01:55.300Z,16416
2016-08-21T13:03:08.281Z,13592
2016-08-21T13:04:21.264Z,12212
2016-08-21T13:05:34.252Z,17728
2016-08-21T13:06:47.471Z,18272
2016-08-21T13:08:00.666Z,21376
2016-08-21T13:09:13.649Z,17312
2016-08-21T13:10:26.642Z,16768
2016-08-21T13:11:39.631Z,11900
2016-08-21T13:12:52.617Z,13336
2016-08-21T13:14:05.604Z,12424
2016-08-21T13:15:18.595Z,9168
2016-08-21T13:16:31.784Z,10024
2016-08-21T13:17:44.790Z,10232
2016-08-21T13:18:57.981Z,6044
2016-08-21T13:20:11.178Z,4064
2016-08-21T13:21:24.169Z,2972
2016-08-21T13:22:37.154Z,3320
2016-08-21T13:23:50.146Z,5136
2016-08-21T13:25:03.135Z,6848
2016-08-21T13:26:16.122Z,6840
2016-08-21T13:27:29.110Z,6468
2016-08-21T13:28:42.303Z,5824
2016-08-21T13:29:55.290Z,5288
2016-08-21T13:31:08.287Z,5660
2016-08-21T13:32:21.481Z,6344
2016-08-21T13:33:34.471Z,7164
2016-08-21T13:34:47.470Z,7804
2016-08-21T13:36:00.480Z,8360
2016-08-21T13:37:13.467Z,8424
2016-08-21T13:38:26.459Z,8144
2016-08-21T13:39:39.443Z,8164
2016-08-21T13:40:52.438Z,8560
2016-08-21T13:42:05.438Z,8712
2016-08-21T13:43:18.434Z,8668
2016-08-21T13:44:31.480Z,8356
2016-08-21T13:45:44.674Z,8304
2016-08-21T13:46:57.683Z,9052
2016-08-21T13:48:10.669Z,9996
2016-08-21T13:49:23.652Z,11080
2016-08-21T13:50:36.829Z,11604
2016-08-21T13:51:49.813Z,11608
2016-08-21T13:53:03.005Z,11048
2016-08-21T13:54:15.991Z,9464
2016-08-21T13:55:28.986Z,8260
2016-08-21T13:56:41.978Z,8212
2016-08-21T13:57:54.971Z,8600
2016-08-21T13:59:08.184Z,7940
2016-08-21T14:00:21.167Z,8172
2016-08-21T14:01:34.155Z,8100
2016-08-21T14:02:47.141Z,8120
2016-08-21T14:04:00.121Z,6736
2016-08-21T14:05:13.312Z,5772
2016-08-21T14:06:26.510Z,4736
2016-08-21T14:07:39.498Z,4032
2016-08-21T14:08:52.488Z,3916
2016-08-21T14:10:05.470Z,4540
2016-08-21T14:11:18.463Z,4600
2016-08-21T14:12:31.444Z,4988
2016-08-21T14:13:44.427Z,5728
2016-08-21T14:14:57.617Z,6508
2016-08-21T14:16:10.806Z,7672
2016-08-21T14:17:23.797Z,9196
2016-08-21T14:18:36.778Z,10768
2016-08-21T14:19:49.770Z,11296
2016-08-21T14:21:02.758Z,10996
2016-08-21T14:22:15.746Z,10276
2016-08-21T14:23:28.744Z,9308
2016-08-21T14:24:41.728Z,8392
2016-08-21T14:25:54.932Z,7632
2016-08-21T14:27:07.930Z,6664
2016-08-21T14:28:21.132Z,5920
2016-08-21T14:29:34.117Z,5352
2016-08-21T14:30:47.117Z,4748
2016-08-21T14:32:00.312Z,3920
2016-08-21T14:33:13.299Z,3536
2016-08-21T14:34:26.283Z,3504
2016-08-21T14:35:39.478Z,3528
2016-08-21T14:36:52.473Z,3616
2016-08-21T14:38:05.464Z,3960
2016-08-21T14:39:18.451Z,5124
2016-08-21T14:40:31.438Z,7284
2016-08-21T14:41:44.423Z,9712
2016-08-21T14:42:57.807Z,11516
2016-08-21T14:44:10.793Z,12076
2016-08-21T14:45:23.834Z,11544
2016-08-21T14:46:36.821Z,10000
2016-08-21T14:47:49.816Z,8532
2016-08-21T14:49:03.003Z,7724
2016-08-21T14:50:15.999Z,8848
2016-08-21T14:51:29.012Z,8812
2016-08-21T14:52:41.991Z,11032
2016-08-21T14:53:54.991Z,13104
2016-08-21T14:55:07.987Z,11532
2016-08-21T14:56:21.373Z,10780
2016-08-21T14:57:34.360Z,11332
2016-08-21T14:58:47.347Z,11012
2016-08-21T15:00:00.339Z,10172
2016-08-21T15:01:13.333Z,9620
2016-08-21T15:02:26.321Z,9000
2016-08-21T15:03:39.300Z,8152
2016-08-21T15:04:52.287Z,7524
2016-08-21T15:06:05.271Z,6916
2016-08-21T15:07:18.257Z,6356
2016-08-21T15:08:31.443Z,7468
2016-08-21T15:09:44.427Z,8096
2016-08-21T15:10:57.424Z,7504
2016-08-21T15:12:10.402Z,7316
2016-08-21T15:13:23.401Z,6992
2016-08-21T15:14:36.585Z,7140
2016-08-21T15:15:49.975Z,7940
2016-08-21T15:17:02.963Z,8628
2016-08-21T15:18:15.955Z,8256
2016-08-21T15:19:28.944Z,9712
2016-08-21T15:20:41.945Z,9816
2016-08-21T15:21:54.940Z,10236
2016-08-21T15:23:08.129Z,10072
2016-08-21T15:24:21.131Z,7700
2016-08-21T15:25:34.122Z,6724
2016-08-21T15:26:47.118Z,6500
2016-08-21T15:28:00.111Z,7256
2016-08-21T15:29:13.094Z,6612
2016-08-21T15:30:26.080Z,6032
2016-08-21T15:31:39.076Z,6596
2016-08-21T15:32:52.106Z,4732
2016-08-21T15:34:05.094Z,4296
2016-08-21T15:35:18.083Z,4800
2016-08-21T15:36:31.071Z,7124
2016-08-21T15:37:44.061Z,8420
2016-08-21T15:38:57.047Z,8480
2016-08-21T15:40:10.239Z,6964
2016-08-21T15:41:23.228Z,5900
2016-08-21T15:42:36.211Z,5936
2016-08-21T15:43:49.192Z,6744
2016-08-21T15:45:02.184Z,7508
2016-08-21T15:46:15.430Z,7764
2016-08-21T15:47:28.417Z,7716
2016-08-21T15:48:41.434Z,8364
2016-08-21T15:49:54.420Z,7384
2016-08-21T15:51:07.412Z,7168
2016-08-21T15:52:20.389Z,6436
2016-08-21T15:53:33.379Z,6324
2016-08-21T15:54:46.375Z,5828
2016-08-21T15:55:59.352Z,5276
2016-08-21T15:57:12.532Z,5800
2016-08-21T15:58:25.516Z,4896
2016-08-21T15:59:38.715Z,4744
2016-08-21T16:00:51.697Z,4132
2016-08-21T16:02:04.884Z,3568
2016-08-21T16:03:17.874Z,3336
2016-08-21T16:04:31.061Z,3120
2016-08-21T16:05:44.059Z,2712
2016-08-21T16:06:57.061Z,2760
2016-08-21T16:08:10.060Z,3616
2016-08-21T16:09:23.088Z,4168
2016-08-21T16:10:36.169Z,4712
2016-08-21T16:11:49.359Z,4392
2016-08-21T16:13:02.340Z,4420
2016-08-21T16:14:15.324Z,4320
2016-08-21T16:15:28.317Z,4668
2016-08-21T16:16:41.304Z,5408
2016-08-21T16:17:54.507Z,6316
2016-08-21T16:19:07.898Z,7420
2016-08-21T16:20:21.091Z,6588
2016-08-21T16:21:34.080Z,5424
2016-08-21T16:22:47.070Z,4772
2016-08-21T16:24:00.064Z,3892
2016-08-21T16:25:13.056Z,3660
2016-08-21T16:26:26.036Z,3608
2016-08-21T16:27:39.024Z,3516